Greenville, Virginia
Current Conditions -  °F | °C
As of 9:55 PM on Thursday 18 Dec 2014 (Local Time) from KW13 Reporting Station
Overcast Overcast  
Wind Chill: 30°   Ceiling: 8000
Heat Index: 34°   Visibility: 10mi
Dew Point: 24°   Wind: 5mph
Humidity: 66%   Direction: 310°NW
Pressure: 30.06"   Gusts: NA
Location:  38°N, 79.16°W
Report Text: KW13 190255Z AUTO 31004KT 10SM OVC080 01/M05 A3006 RMK AO1 T00101047
Loading
Personal Weather Stations






























Interactive Weather Map New forecast layout! Learn more

10-Day Weather Forecast

Advertisements
Track Severe Weather on mobile